Time;durP1;ratioP1;P1;durP2;ratioP2;P2;SDS_P1;SDS_P2;PMS_P1;PMS_P2;Temp;Humidity;BMP_temperature;BMP_pressure;BME280_temperature;BME280_humidity;BME280_pressure;Samples;Min_cycle;Max_cycle;Signal;HPM_P1;HPM_P2
2022/06/10 00:00:17;;;;;;;0.93;0.60;;;23.20;54.40;;;;;;5052238;28;20542;-85
2022/06/10 00:02:43;;;;;;;0.70;0.57;;;;;;;;;;5051945;28;20445;-85
2022/06/10 00:05:22;;;;;;;1.93;0.63;;;23.10;76.00;;;;;;5052272;28;20433;-85
2022/06/10 00:07:48;;;;;;;0.50;0.50;;;;;;;;;;5052309;28;20442;-86
2022/06/10 00:10:16;;;;;;;0.60;0.60;;;23.10;54.30;;;;;;5052065;28;20941;-85
2022/06/10 00:12:42;;;;;;;1.00;0.60;;;;;;;;;;5051882;28;20414;-85
2022/06/10 00:15:09;;;;;;;0.80;0.50;;;23.20;54.30;;;;;;5051968;28;20438;-86
2022/06/10 00:17:35;;;;;;;1.20;0.80;;;;;;;;;;5051219;28;20419;-85
2022/06/10 00:20:03;;;;;;;1.33;0.60;;;;;;;;;;5062729;28;20824;-86
2022/06/10 00:22:29;;;;;;;2.40;0.70;;;;;;;;;;5051356;28;20419;-85
2022/06/10 00:24:55;;;;;;;0.70;0.60;;;23.00;74.00;;;;;;5051494;28;20422;-86
2022/06/10 00:27:21;;;;;;;1.23;0.57;;;23.30;67.70;;;;;;5051398;28;20427;-85
2022/06/10 00:29:50;;;;;;;0.73;0.47;;;;;;;;;;5051017;28;20250;-85
2022/06/10 00:32:17;;;;;;;1.00;0.60;;;23.30;54.30;;;;;;5050893;28;20184;-86
2022/06/10 00:34:43;;;;;;;1.10;0.60;;;;;;;;;;5051584;28;20808;-85
2022/06/10 00:37:10;;;;;;;1.07;0.77;;;23.10;70.30;;;;;;5051229;28;20933;-85
2022/06/10 00:39:36;;;;;;;0.70;0.70;;;23.10;77.00;;;;;;5042184;28;20443;-85
2022/06/10 00:42:04;;;;;;;0.60;0.57;;;23.20;54.40;;;;;;5048335;28;20489;-85
2022/06/10 00:44:36;;;;;;;0.50;0.40;;;23.10;61.20;;;;;;5048285;28;20180;-85
2022/06/10 00:47:05;;;;;;;0.60;0.50;;;21.90;53.60;;;;;;5063343;28;20439;-85
2022/06/10 00:49:31;;;;;;;1.60;0.50;;;;;;;;;;5050710;28;20475;-85
2022/06/10 00:51:58;;;;;;;0.70;0.70;;;;;;;;;;5050930;28;20430;-86
2022/06/10 00:54:35;;;;;;;3.57;0.50;;;23.10;69.70;;;;;;5050439;28;20466;-86
2022/06/10 00:57:14;;;;;;;1.00;0.57;;;23.30;73.80;;;;;;5046294;28;20948;-86
2022/06/10 00:59:48;;;;;;;1.17;0.60;;;23.40;68.70;;;;;;5049600;28;20468;-86
2022/06/10 01:02:17;;;;;;;0.60;0.60;;;23.40;72.70;;;;;;5050390;28;20423;-86
2022/06/10 01:04:44;;;;;;;0.53;0.53;;;23.20;54.30;;;;;;5050386;28;20448;-85
2022/06/10 01:07:14;;;;;;;2.30;0.50;;;23.20;54.30;;;;;;5050267;28;20442;-85
2022/06/10 01:09:40;;;;;;;0.60;0.60;;;23.10;77.20;;;;;;5049938;28;20467;-85
2022/06/10 01:12:38;;;;;;;0.50;0.47;;;23.20;54.30;;;;;;5050039;28;20442;-85
2022/06/10 01:15:37;;;;;;;5.77;0.80;;;23.00;76.80;;;;;;5050024;28;21147;-86
2022/06/10 01:18:03;;;;;;;0.60;0.40;;;;;;;;;;5049847;28;20426;-85
2022/06/10 01:20:29;;;;;;;0.50;0.40;;;;;;;;;;5049693;28;20852;-86
2022/06/10 01:22:55;;;;;;;0.60;0.50;;;;;;;;;;5050020;28;20476;-86
2022/06/10 01:25:49;;;;;;;1.67;0.50;;;23.00;67.60;;;;;;5063171;28;20472;-85
2022/06/10 01:28:24;;;;;;;1.00;0.80;;;22.80;53.90;;;;;;5049959;28;20918;-86
2022/06/10 01:31:01;;;;;;;1.70;0.63;;;23.20;54.00;;;;;;5047709;28;20507;-86
2022/06/10 01:33:29;;;;;;;0.60;0.50;;;23.30;73.20;;;;;;5040664;28;20509;-86
2022/06/10 01:36:13;;;;;;;0.50;0.47;;;23.20;77.70;;;;;;5049839;28;20411;-86
2022/06/10 01:38:55;;;;;;;0.70;0.50;;;23.20;54.00;;;;;;5049547;28;20427;-85
2022/06/10 01:41:37;;;;;;;1.13;0.63;;;23.20;54.00;;;;;;5049422;28;20894;-86
2022/06/10 01:44:03;;;;;;;0.80;0.80;;;;;;;;;;5049570;28;20518;-85
2022/06/10 01:46:35;;;;;;;0.70;0.60;;;22.40;53.90;;;;;;5050046;28;20498;-85
2022/06/10 01:49:10;;;;;;;0.80;0.63;;;23.20;54.00;;;;;;5049497;28;20200;-85
2022/06/10 01:52:09;;;;;;;1.53;0.60;;;23.40;59.30;;;;;;5056454;28;20458;-85
2022/06/10 01:54:35;;;;;;;0.60;0.60;;;23.00;77.60;;;;;;5049641;28;20793;-86
2022/06/10 01:57:06;;;;;;;0.87;0.43;;;23.10;54.20;;;;;;5063535;28;20481;-85
2022/06/10 01:59:44;;;;;;;2.70;0.60;;;23.20;54.10;;;;;;5049480;28;20184;-85
2022/06/10 02:02:15;;;;;;;0.77;0.60;;;23.20;54.10;;;;;;5044140;28;20432;-85
2022/06/10 02:04:47;;;;;;;0.63;0.63;;;23.70;54.30;;;;;;5049207;28;20431;-86
2022/06/10 02:07:32;;;;;;;0.60;0.60;;;23.50;57.30;;;;;;5046292;28;21106;-85
2022/06/10 02:10:06;;;;;;;0.83;0.83;;;23.20;77.90;;;;;;5049393;28;20508;-86
2022/06/10 02:12:39;;;;;;;1.10;0.97;;;22.90;62.30;;;;;;5049394;28;20908;-85
2022/06/10 02:15:11;;;;;;;0.80;0.50;;;23.10;67.30;;;;;;5049362;28;20453;-86
2022/06/10 02:17:43;;;;;;;0.60;0.60;;;23.10;55.70;;;;;;5033606;28;20438;-85
2022/06/10 02:20:16;;;;;;;1.30;0.50;;;23.30;75.60;;;;;;5049523;28;20455;-85
2022/06/10 02:22:45;;;;;;;0.60;0.50;;;23.30;74.70;;;;;;5049403;28;21018;-86
2022/06/10 02:25:29;;;;;;;0.60;0.60;;;23.30;53.90;;;;;;5049543;28;20514;-86
2022/06/10 02:28:07;;;;;;;0.70;0.60;;;23.10;54.10;;;;;;5035088;28;20450;-86
2022/06/10 02:31:00;;;;;;;0.50;0.40;;;23.10;53.70;;;;;;5047443;28;20546;-85
2022/06/10 02:33:26;;;;;;;1.17;0.40;;;;;;;;;;5044494;28;20431;-86
2022/06/10 02:36:03;;;;;;;1.23;0.70;;;23.20;56.20;;;;;;5049256;28;20419;-86
2022/06/10 02:38:59;;;;;;;2.93;0.70;;;23.10;53.70;;;;;;5048930;28;20561;-85
2022/06/10 02:41:39;;;;;;;0.50;0.50;;;23.30;59.20;;;;;;5048682;28;20457;-85
2022/06/10 02:44:23;;;;;;;0.50;0.50;;;23.30;73.70;;;;;;5048779;28;20441;-85
2022/06/10 02:47:01;;;;;;;0.63;0.40;;;23.10;74.40;;;;;;5049331;28;20973;-85
2022/06/10 02:49:27;;;;;;;1.17;0.70;;;23.20;77.50;;;;;;5034233;28;20454;-85
2022/06/10 02:51:53;;;;;;;2.20;0.73;;;;;;;;;;5047836;28;20817;-86
2022/06/10 02:54:29;;;;;;;4.10;0.60;;;22.80;57.00;;;;;;5048982;28;20463;-86
2022/06/10 02:56:56;;;;;;;0.80;0.57;;;23.00;53.80;;;;;;5048672;28;20422;-85
2022/06/10 03:02:29;;;;;;;0.50;0.50;;;23.10;53.50;;;;;;5049197;28;20500;-85
2022/06/10 03:05:09;;;;;;;0.50;0.50;;;22.90;76.00;;;;;;5048829;28;20466;-85
2022/06/10 03:07:47;;;;;;;0.50;0.40;;;23.10;53.50;;;;;;5048854;28;20474;-85
2022/06/10 03:10:22;;;;;;;0.80;0.60;;;23.10;53.40;;;;;;5052511;28;20461;-86
2022/06/10 03:13:19;;;;;;;1.03;0.50;;;23.10;53.40;;;;;;5053078;28;20450;-86
2022/06/10 03:16:07;;;;;;;1.83;0.97;;;23.40;70.10;;;;;;5052838;28;20792;-85
2022/06/10 03:18:45;;;;;;;0.50;0.50;;;23.10;53.40;;;;;;5039918;28;20568;-85
2022/06/10 03:21:11;;;;;;;0.53;0.50;;;;;;;;;;5048846;28;20465;-85
2022/06/10 03:24:06;;;;;;;0.60;0.40;;;23.10;64.80;;;;;;5052884;28;20410;-85
2022/06/10 03:26:49;;;;;;;0.60;0.60;;;23.10;56.40;;;;;;5052843;28;20832;-85
2022/06/10 03:29:40;;;;;;;1.80;0.50;;;23.10;53.50;;;;;;5052586;28;20458;-85
2022/06/10 03:32:15;;;;;;;1.47;0.60;;;22.90;53.60;;;;;;5052612;28;20510;-85
2022/06/10 03:34:46;;;;;;;1.33;0.73;;;23.10;53.50;;;;;;5045223;28;20513;-85
2022/06/10 03:37:12;;;;;;;1.00;0.50;;;;;;;;;;5053040;28;20460;-85
2022/06/10 03:39:41;;;;;;;0.73;0.50;;;23.10;59.00;;;;;;5052426;28;20788;-85
2022/06/10 03:42:14;;;;;;;0.87;0.50;;;23.30;77.70;;;;;;5052599;28;20488;-85
2022/06/10 03:44:41;;;;;;;0.53;0.53;;;23.20;77.00;;;;;;5039545;28;20481;-86
2022/06/10 03:47:10;;;;;;;2.40;0.57;;;22.90;69.20;;;;;;5050908;28;20445;-85
2022/06/10 03:49:48;;;;;;;0.80;0.70;;;23.10;53.40;;;;;;5052625;28;21054;-85
2022/06/10 03:52:20;;;;;;;0.50;0.50;;;23.10;53.40;;;;;;5052434;28;20446;-85
2022/06/10 03:54:46;;;;;;;2.50;0.50;;;;;;;;;;5044745;28;20419;-85
2022/06/10 03:57:13;;;;;;;0.70;0.50;;;;;;;;;;5052252;28;20431;-86
2022/06/10 03:59:40;;;;;;;1.47;0.70;;;;;;;;;;5051922;28;20426;-85
2022/06/10 04:02:05;;;;;;;0.60;0.60;;;23.20;54.60;;;;;;5051138;28;20449;-86
2022/06/10 04:04:31;;;;;;;0.60;0.60;;;;;;;;;;5052013;28;20442;-85
2022/06/10 04:06:57;;;;;;;0.80;0.60;;;23.00;65.80;;;;;;5051976;28;20192;-85
2022/06/10 04:09:23;;;;;;;0.80;0.50;;;;;;;;;;5051860;28;20549;-85
2022/06/10 04:11:49;;;;;;;1.73;0.60;;;;;;;;;;5051522;28;20200;-85
2022/06/10 04:14:14;;;;;;;0.50;0.50;;;23.00;76.20;;;;;;5051681;28;20419;-86
2022/06/10 04:16:40;;;;;;;1.43;0.60;;;;;;;;;;5052249;28;20420;-85
2022/06/10 04:19:06;;;;;;;1.13;0.60;;;23.20;75.70;;;;;;5051441;28;20188;-86
2022/06/10 04:21:32;;;;;;;0.50;0.50;;;23.00;64.50;;;;;;5051847;28;20470;-86
2022/06/10 04:23:58;;;;;;;0.50;0.40;;;;;;;;;;5051925;28;20181;-85
2022/06/10 04:26:24;;;;;;;1.47;0.77;;;;;;;;;;5051955;28;20207;-86
2022/06/10 04:28:50;;;;;;;0.50;0.40;;;;;;;;;;5051857;28;20545;-85
2022/06/10 04:31:16;;;;;;;0.53;0.43;;;;;;;;;;5051494;28;20447;-85
2022/06/10 04:33:41;;;;;;;0.70;0.50;;;23.00;73.70;;;;;;5051446;28;20484;-86
2022/06/10 04:36:08;;;;;;;1.80;0.73;;;23.00;62.40;;;;;;5051576;28;20431;-85
2022/06/10 04:38:34;;;;;;;3.13;0.90;;;;;;;;;;5051279;28;20648;-85
2022/06/10 04:41:01;;;;;;;0.50;0.40;;;;;;;;;;5051210;28;20548;-85
2022/06/10 04:43:27;;;;;;;0.50;0.40;;;;;;;;;;5051028;28;20427;-85
2022/06/10 04:45:56;;;;;;;1.00;0.50;;;23.00;53.40;;;;;;5051540;28;20426;-85
2022/06/10 04:48:21;;;;;;;0.60;0.60;;;23.10;74.30;;;;;;5051135;28;20909;-85
2022/06/10 04:50:47;;;;;;;0.80;0.63;;;23.10;76.70;;;;;;5051078;28;20465;-86
2022/06/10 04:53:13;;;;;;;1.63;0.80;;;23.20;71.90;;;;;;5051247;28;20168;-86
2022/06/10 04:55:39;;;;;;;1.47;0.60;;;;;;;;;;5050967;28;20176;-85
2022/06/10 04:58:05;;;;;;;0.50;0.50;;;;;;;;;;5051775;28;20403;-85
2022/06/10 05:00:34;;;;;;;1.80;0.70;;;23.00;53.30;;;;;;5050975;28;21004;-85
2022/06/10 05:03:02;;;;;;;0.93;0.63;;;23.00;53.20;;;;;;5050989;28;20461;-86
2022/06/10 05:05:29;;;;;;;1.07;0.93;;;;;;;;;;5032612;28;21006;-85
2022/06/10 05:07:55;;;;;;;1.17;0.57;;;23.20;68.90;;;;;;5051071;28;20430;-85
2022/06/10 05:10:21;;;;;;;0.97;0.80;;;;;;;;;;5050177;28;21010;-86
2022/06/10 05:12:46;;;;;;;1.17;0.60;;;23.20;77.00;;;;;;5050502;28;20626;-86
2022/06/10 05:15:13;;;;;;;0.60;0.60;;;23.10;53.60;;;;;;5050419;28;20458;-85
2022/06/10 05:17:39;;;;;;;1.63;0.80;;;23.10;74.20;;;;;;5050966;28;20544;-85
2022/06/10 05:20:05;;;;;;;0.60;0.60;;;23.20;75.20;;;;;;5050326;28;20459;-85
2022/06/10 05:22:31;;;;;;;0.60;0.50;;;;;;;;;;5050598;28;20266;-85
2022/06/10 05:24:57;;;;;;;0.60;0.43;;;;;;;;;;5050855;28;20462;-85
2022/06/10 05:27:24;;;;;;;0.90;0.70;;;;;;;;;;5050244;28;20437;-85
2022/06/10 05:29:49;;;;;;;1.07;0.50;;;;;;;;;;5049960;28;20468;-85
2022/06/10 05:32:15;;;;;;;1.33;0.77;;;22.90;69.60;;;;;;5044518;28;20438;-82
2022/06/10 05:34:44;;;;;;;0.73;0.60;;;;;;;;;;5048596;28;20431;-85
2022/06/10 05:37:25;;;;;;;0.70;0.70;;;23.10;57.90;;;;;;5049081;28;20410;-86
2022/06/10 05:39:52;;;;;;;0.70;0.50;;;23.10;71.90;;;;;;5058940;28;20438;-83
2022/06/10 05:42:18;;;;;;;0.77;0.77;;;;;;;;;;5048950;28;20802;-84
2022/06/10 05:44:49;;;;;;;1.17;0.87;;;23.00;53.60;;;;;;5043531;28;20518;-86
2022/06/10 05:47:19;;;;;;;0.50;0.43;;;23.20;61.20;;;;;;5049104;28;20450;-85
2022/06/10 05:49:48;;;;;;;0.83;0.80;;;23.10;54.00;;;;;;5046980;28;20454;-86
2022/06/10 05:52:16;;;;;;;0.60;0.50;;;23.00;53.90;;;;;;5050206;28;20435;-86
2022/06/10 05:54:45;;;;;;;1.20;0.87;;;23.20;74.30;;;;;;5050327;28;20423;-84
2022/06/10 05:57:11;;;;;;;1.37;0.50;;;;;;;;;;5049296;28;20446;-85
2022/06/10 05:59:37;;;;;;;1.37;0.60;;;;;;;;;;5042398;28;20415;-78
2022/06/10 06:02:06;;;;;;;1.03;0.60;;;22.90;65.20;;;;;;5051981;28;20469;-78
2022/06/10 06:04:32;;;;;;;0.87;0.50;;;23.30;78.40;;;;;;5052234;28;20458;-78
2022/06/10 06:06:58;;;;;;;0.60;0.60;;;;;;;;;;5052150;28;20454;-78
2022/06/10 06:09:26;;;;;;;1.03;0.60;;;;;;;;;;5052120;28;20774;-77
2022/06/10 06:11:54;;;;;;;0.90;0.70;;;;;;;;;;5051601;28;20445;-78
2022/06/10 06:14:20;;;;;;;1.53;0.63;;;23.10;67.00;;;;;;5052577;28;20809;-78
2022/06/10 06:16:51;;;;;;;2.17;0.60;;;23.20;72.10;;;;;;5051285;28;20522;-77
2022/06/10 06:19:17;;;;;;;0.80;0.80;;;;;;;;;;5051949;28;20252;-78
2022/06/10 06:21:43;;;;;;;1.40;0.60;;;;;;;;;;5052140;28;20427;-78
2022/06/10 06:24:08;;;;;;;1.00;0.60;;;23.20;77.30;;;;;;5052071;28;20410;-78
2022/06/10 06:26:34;;;;;;;2.87;0.70;;;;;;;;;;5050919;28;20481;-84
2022/06/10 06:29:00;;;;;;;1.37;0.77;;;;;;;;;;5041377;28;20350;-84
2022/06/10 06:31:26;;;;;;;0.60;0.40;;;;;;;;;;5048092;28;20976;-84
2022/06/10 06:33:52;;;;;;;0.70;0.63;;;23.40;76.40;;;;;;5049819;28;20419;-84
2022/06/10 06:36:24;;;;;;;0.70;0.40;;;23.40;56.00;;;;;;5049443;28;20411;-84
2022/06/10 06:38:50;;;;;;;0.50;0.50;;;;;;;;;;5050551;28;20532;-84
2022/06/10 06:41:17;;;;;;;1.30;0.80;;;23.60;77.80;;;;;;5050881;28;20930;-79
2022/06/10 06:43:43;;;;;;;1.73;0.90;;;;;;;;;;5052089;28;20537;-79
2022/06/10 06:46:17;;;;;;;0.50;0.47;;;23.60;56.10;;;;;;5050952;28;20450;-78
2022/06/10 06:48:43;;;;;;;0.60;0.57;;;23.60;67.40;;;;;;5055523;28;20940;-78
2022/06/10 06:51:10;;;;;;;0.70;0.53;;;23.50;55.30;;;;;;5055187;28;20466;-79
2022/06/10 06:53:36;;;;;;;0.50;0.47;;;;;;;;;;5054644;28;20441;-79
2022/06/10 06:56:04;;;;;;;2.40;0.80;;;23.50;56.80;;;;;;5056097;28;20438;-79
2022/06/10 06:58:30;;;;;;;0.57;0.57;;;24.20;60.10;;;;;;5037650;28;20965;-78
2022/06/10 07:00:56;;;;;;;1.27;0.80;;;;;;;;;;5054534;28;20533;-79
2022/06/10 07:03:22;;;;;;;0.63;0.60;;;;;;;;;;5053534;28;20422;-79
2022/06/10 07:05:49;;;;;;;0.73;0.73;;;23.60;55.70;;;;;;5056623;28;20502;-79
2022/06/10 07:08:17;;;;;;;1.07;0.80;;;23.10;55.40;;;;;;5056789;28;20420;-80
2022/06/10 07:10:43;;;;;;;0.97;0.60;;;;;;;;;;5056031;28;20531;-79
2022/06/10 07:13:09;;;;;;;0.60;0.50;;;23.50;75.20;;;;;;5057357;28;20403;-80
2022/06/10 07:15:37;;;;;;;1.67;0.77;;;;;;;;;;5055911;28;20433;-79
2022/06/10 07:18:03;;;;;;;1.13;0.90;;;23.90;67.50;;;;;;5055699;28;20426;-80
2022/06/10 07:20:31;;;;;;;0.70;0.50;;;23.50;60.30;;;;;;5057644;28;20472;-82
2022/06/10 07:22:58;;;;;;;0.63;0.63;;;23.60;78.10;;;;;;5051997;28;20195;-80
2022/06/10 07:25:25;;;;;;;0.60;0.40;;;;;;;;;;5057035;28;20464;-80
2022/06/10 07:27:52;;;;;;;1.00;0.70;;;;;;;;;;5056237;28;20422;-80
2022/06/10 07:30:19;;;;;;;0.50;0.40;;;23.80;56.20;;;;;;5050713;28;20572;-80
2022/06/10 07:32:45;;;;;;;1.83;0.90;;;;;;;;;;5051183;28;20460;-79
2022/06/10 07:35:12;;;;;;;0.70;0.50;;;;;;;;;;5048741;28;20797;-79
2022/06/10 07:37:57;;;;;;;1.20;0.83;;;23.80;56.50;;;;;;5058024;28;20439;-93
2022/06/10 07:43:19;;;;;;;0.60;0.60;;;;;;;;;;5055922;28;20493;-92
2022/06/10 07:45:45;;;;;;;0.80;0.63;;;;;;;;;;5054064;28;20521;-89
2022/06/10 07:48:21;;;;;;;1.60;0.67;;;23.80;55.20;;;;;;5052666;28;20516;-92
2022/06/10 07:50:48;;;;;;;1.10;0.73;;;23.80;55.00;;;;;;5051842;28;20521;-89
2022/06/10 07:53:14;;;;;;;2.60;0.90;;;;;;;;;;5052760;28;20427;-87
2022/06/10 07:55:41;;;;;;;0.53;0.53;;;23.70;54.50;;;;;;5050639;28;20740;-89
2022/06/10 07:58:07;;;;;;;2.60;1.00;;;23.70;54.70;;;;;;5052570;28;20525;-88
2022/06/10 08:00:34;;;;;;;0.80;0.80;;;;;;;;;;5031744;28;20951;-79
2022/06/10 08:03:00;;;;;;;4.97;1.20;;;23.80;59.90;;;;;;5050654;28;20774;-79
2022/06/10 08:05:26;;;;;;;2.20;1.07;;;23.80;66.00;;;;;;5053196;28;20433;-78
2022/06/10 08:07:52;;;;;;;2.60;0.70;;;;;;;;;;5046846;28;20837;-79
2022/06/10 08:10:26;;;;;;;1.60;0.90;;;24.00;55.10;;;;;;5048604;28;20571;-80
2022/06/10 08:12:52;;;;;;;2.00;1.00;;;23.80;62.80;;;;;;5054541;28;20456;-79
2022/06/10 08:15:19;;;;;;;2.53;0.80;;;23.80;61.50;;;;;;5036547;28;20840;-79
2022/06/10 08:17:46;;;;;;;0.90;0.57;;;23.90;67.60;;;;;;5053602;28;20181;-79
2022/06/10 08:20:19;;;;;;;0.90;0.50;;;23.80;55.80;;;;;;5054171;28;20562;-78
2022/06/10 08:22:45;;;;;;;1.33;0.70;;;;;;;;;;5054258;28;20414;-79
2022/06/10 08:25:12;;;;;;;1.50;0.70;;;23.80;56.30;;;;;;5069103;28;20487;-78
2022/06/10 08:27:39;;;;;;;0.73;0.50;;;;;;;;;;5055601;28;20519;-79
2022/06/10 08:30:07;;;;;;;3.00;0.73;;;23.70;56.50;;;;;;5054500;28;20922;-79
2022/06/10 08:32:33;;;;;;;0.70;0.63;;;;;;;;;;5055373;28;20451;-79
2022/06/10 08:34:59;;;;;;;0.70;0.70;;;23.90;76.10;;;;;;5064874;28;20438;-79
2022/06/10 08:37:25;;;;;;;2.10;0.90;;;;;;;;;;5054460;28;20414;-79
2022/06/10 08:39:50;;;;;;;2.97;0.83;;;23.80;76.90;;;;;;5050976;28;20644;-79
2022/06/10 08:42:36;;;;;;;1.30;0.90;;;23.80;58.60;;;;;;5056927;28;20501;-80
2022/06/10 08:45:25;;;;;;;0.80;0.50;;;23.90;56.90;;;;;;5054337;28;20169;-79
2022/06/10 08:48:41;;;;;;;0.60;0.50;;;24.00;57.00;;;;;;5054278;28;20528;-79
2022/06/10 08:51:25;;;;;;;0.90;0.67;;;24.00;57.00;;;;;;4991819;28;20457;-81
2022/06/10 08:54:14;;;;;;;1.00;0.60;;;24.10;79.00;;;;;;4993035;28;20417;-79
2022/06/10 08:56:46;;;;;;;1.60;0.60;;;24.10;80.80;;;;;;5043834;28;20430;-79
2022/06/10 08:59:20;;;;;;;1.00;0.67;;;23.80;75.70;;;;;;5051032;28;20432;-79
2022/06/10 09:02:04;;;;;;;3.43;0.67;;;23.90;72.70;;;;;;5050096;28;20469;-79
2022/06/10 09:04:57;;;;;;;0.60;0.60;;;24.00;60.00;;;;;;5049309;28;20848;-83
2022/06/10 09:07:25;;;;;;;0.70;0.70;;;24.10;57.20;;;;;;5051616;28;20464;-82
2022/06/10 09:09:51;;;;;;;1.27;0.77;;;24.10;56.90;;;;;;5052330;28;20455;-82
2022/06/10 09:12:18;;;;;;;0.80;0.50;;;;;;;;;;5052492;28;20414;-83
2022/06/10 09:14:43;;;;;;;0.60;0.60;;;24.10;70.50;;;;;;5064333;28;20415;-84
2022/06/10 09:17:16;;;;;;;1.60;0.70;;;24.00;56.00;;;;;;5051923;28;20480;-82
2022/06/10 09:19:51;;;;;;;0.60;0.60;;;24.50;59.10;;;;;;5052587;28;20164;-83
2022/06/10 09:22:27;;;;;;;1.10;0.80;;;24.00;55.30;;;;;;5052536;28;20410;-84
2022/06/10 09:25:29;;;;;;;0.90;0.80;;;24.00;78.80;;;;;;5050993;28;20839;-83
2022/06/10 09:27:57;;;;;;;1.47;0.60;;;24.00;55.20;;;;;;5035680;28;20454;-83
2022/06/10 09:30:43;;;;;;;1.23;0.50;;;23.90;74.40;;;;;;5050515;28;21067;-83
2022/06/10 09:33:09;;;;;;;3.57;0.93;;;;;;;;;;5047667;28;20431;-84
2022/06/10 09:36:00;;;;;;;1.17;0.67;;;24.00;54.70;;;;;;5041625;28;20946;-83
2022/06/10 09:38:55;;;;;;;1.17;0.60;;;24.00;54.50;;;;;;5050436;28;20427;-84
2022/06/10 09:41:21;;;;;;;1.40;0.70;;;;;;;;;;5049968;28;20480;-84
2022/06/10 09:44:18;;;;;;;0.60;0.53;;;23.70;55.10;;;;;;5050696;28;20506;-84
2022/06/10 09:46:44;;;;;;;0.80;0.80;;;;;;;;;;5023328;28;20458;-84
2022/06/10 09:49:35;;;;;;;0.50;0.40;;;23.90;54.00;;;;;;5055690;28;20564;-84
2022/06/10 09:52:19;;;;;;;0.70;0.70;;;23.90;53.90;;;;;;5053799;28;20435;-84
2022/06/10 09:54:44;;;;;;;1.13;0.60;;;;;;;;;;5050946;28;20425;-84
2022/06/10 09:57:53;;;;;;;1.03;0.50;;;23.90;53.70;;;;;;5052012;28;20418;-84
2022/06/10 10:00:28;;;;;;;0.60;0.50;;;23.80;53.70;;;;;;5052020;28;20609;-83
2022/06/10 10:03:28;;;;;;;0.80;0.63;;;23.90;53.60;;;;;;5051812;28;20768;-83
2022/06/10 10:06:20;;;;;;;0.50;0.40;;;23.90;53.50;;;;;;5035730;28;20443;-84
2022/06/10 10:08:57;;;;;;;0.53;0.53;;;24.00;55.50;;;;;;5044528;28;20472;-84
2022/06/10 10:11:34;;;;;;;0.63;0.63;;;23.80;64.10;;;;;;5050565;28;20450;-83
2022/06/10 10:14:00;;;;;;;0.70;0.70;;;;;;;;;;5029796;28;20959;-84
2022/06/10 10:16:46;;;;;;;0.70;0.50;;;23.80;53.20;;;;;;5030090;28;20438;-84
2022/06/10 10:19:46;;;;;;;0.97;0.67;;;23.70;53.20;;;;;;5030106;28;20177;-83
2022/06/10 10:22:17;;;;;;;0.60;0.60;;;23.70;56.80;;;;;;5029822;28;20483;-84
2022/06/10 10:24:45;;;;;;;0.57;0.53;;;23.80;53.50;;;;;;5028644;28;20744;-83
2022/06/10 10:27:20;;;;;;;2.10;0.80;;;23.80;53.60;;;;;;5023091;28;20489;-84
2022/06/10 10:29:52;;;;;;;0.97;0.53;;;23.80;53.40;;;;;;5049731;28;20537;-84
2022/06/10 10:32:22;;;;;;;2.30;0.70;;;23.80;69.20;;;;;;5049166;28;20914;-84
2022/06/10 10:34:55;;;;;;;1.80;0.57;;;23.70;57.10;;;;;;5047444;28;20496;-83
2022/06/10 10:37:30;;;;;;;1.50;0.57;;;23.70;70.90;;;;;;5046344;28;20453;-83
2022/06/10 10:40:01;;;;;;;0.60;0.60;;;23.80;53.50;;;;;;5047841;28;20495;-84
2022/06/10 10:42:39;;;;;;;0.70;0.40;;;24.00;53.50;;;;;;5048499;28;20478;-83
2022/06/10 10:45:20;;;;;;;1.90;0.43;;;23.70;53.40;;;;;;5047109;28;20450;-83
2022/06/10 10:47:54;;;;;;;0.57;0.53;;;23.80;53.30;;;;;;5050045;28;20518;-81
2022/06/10 10:50:32;;;;;;;0.60;0.60;;;23.70;53.90;;;;;;5048952;28;20582;-83
2022/06/10 10:52:59;;;;;;;0.90;0.60;;;23.70;54.10;;;;;;5047765;28;20431;-82
2022/06/10 10:55:36;;;;;;;1.23;0.60;;;23.90;53.60;;;;;;5050750;28;20435;-81
2022/06/10 10:58:11;;;;;;;3.53;2.30;;;;;;;;;;5054302;28;20424;-83
2022/06/10 11:00:42;;;;;;;1.33;0.70;;;23.90;53.70;;;;;;5052913;28;20468;-84
2022/06/10 11:03:27;;;;;;;1.73;0.63;;;23.90;53.60;;;;;;5053949;28;20858;-84
2022/06/10 11:05:54;;;;;;;0.97;0.50;;;24.00;59.30;;;;;;5053608;28;20438;-84
2022/06/10 11:08:20;;;;;;;0.60;0.50;;;;;;;;;;5054137;28;20415;-83
2022/06/10 11:11:23;;;;;;;1.80;1.00;;;24.00;75.50;;;;;;5053769;28;20473;-82
2022/06/10 11:13:59;;;;;;;3.27;0.93;;;23.90;53.20;;;;;;5053256;28;20506;-82
2022/06/10 11:16:27;;;;;;;0.70;0.60;;;24.00;75.60;;;;;;5044740;28;20439;-83
2022/06/10 11:19:15;;;;;;;0.50;0.43;;;23.90;53.30;;;;;;5053863;28;20411;-85
2022/06/10 11:21:52;;;;;;;0.83;0.50;;;24.40;53.30;;;;;;5034630;28;20876;-84
2022/06/10 11:24:43;;;;;;;1.17;1.03;;;23.00;52.60;;;;;;5035732;28;20410;-84
2022/06/10 11:27:23;;;;;;;0.97;0.50;;;24.00;53.10;;;;;;5069827;28;20422;-83
2022/06/10 11:30:01;;;;;;;0.63;0.63;;;24.10;73.70;;;;;;5070673;28;20480;-83
2022/06/10 11:32:50;;;;;;;1.23;1.13;;;24.00;53.30;;;;;;5058707;28;20470;-85
2022/06/10 11:35:36;;;;;;;1.13;0.70;;;23.90;76.50;;;;;;5056257;28;20514;-81
2022/06/10 11:38:18;;;;;;;0.80;0.60;;;23.60;52.90;;;;;;5055958;28;20844;-83
2022/06/10 11:40:47;;;;;;;0.57;0.57;;;24.20;74.70;;;;;;5055865;28;20457;-82
2022/06/10 11:43:25;;;;;;;1.00;0.60;;;24.00;68.10;;;;;;5056421;28;20434;-83
2022/06/10 11:46:05;;;;;;;0.93;0.73;;;24.10;53.00;;;;;;5055929;28;20510;-83
2022/06/10 11:48:46;;;;;;;0.50;0.50;;;24.10;53.10;;;;;;5053930;28;20524;-84
2022/06/10 11:51:42;;;;;;;4.40;0.60;;;24.10;52.80;;;;;;5054021;28;20445;-84
2022/06/10 11:54:34;;;;;;;1.10;0.67;;;23.70;52.50;;;;;;5054961;28;20440;-84
2022/06/10 12:00:31;;;;;;;1.00;0.60;;;24.10;52.70;;;;;;5048821;28;20517;-82
2022/06/10 12:03:17;;;;;;;1.60;0.70;;;24.10;52.70;;;;;;5033664;28;20477;-83
2022/06/10 12:06:01;;;;;;;0.77;0.50;;;24.30;71.00;;;;;;5053462;28;20481;-82
2022/06/10 12:08:28;;;;;;;0.53;0.50;;;;;;;;;;5054325;28;21002;-82
2022/06/10 12:11:00;;;;;;;1.90;0.73;;;24.10;62.80;;;;;;5054057;28;20486;-82
2022/06/10 12:13:30;;;;;;;1.27;0.50;;;24.30;52.70;;;;;;5053882;28;21006;-82
2022/06/10 12:15:58;;;;;;;0.60;0.60;;;24.20;53.00;;;;;;5046746;28;20758;-82
2022/06/10 12:18:30;;;;;;;0.60;0.60;;;24.10;52.40;;;;;;5049042;28;20882;-82
2022/06/10 12:21:02;;;;;;;0.60;0.50;;;24.10;52.60;;;;;;5053921;28;20454;-82
2022/06/10 12:23:38;;;;;;;2.40;0.87;;;24.10;52.60;;;;;;5054060;28;20419;-82
2022/06/10 12:26:14;;;;;;;0.70;0.50;;;24.10;52.30;;;;;;5051472;28;20423;-82
2022/06/10 12:28:46;;;;;;;1.00;0.63;;;24.10;52.40;;;;;;5053048;28;20406;-82
2022/06/10 12:31:31;;;;;;;3.50;0.50;;;24.30;53.30;;;;;;5052667;28;20443;-82
2022/06/10 12:34:31;;;;;;;1.00;0.87;;;25.60;52.90;;;;;;5052683;28;20928;-82
2022/06/10 12:37:03;;;;;;;0.90;0.60;;;24.20;52.30;;;;;;5041219;28;20422;-82
2022/06/10 12:39:47;;;;;;;2.60;1.10;;;23.90;52.00;;;;;;5051892;28;20415;-82
2022/06/10 12:42:19;;;;;;;8.60;1.00;;;24.30;62.60;;;;;;5050534;28;20422;-82
2022/06/10 12:44:52;;;;;;;1.27;0.97;;;24.10;64.00;;;;;;5051414;28;20865;-82
2022/06/10 12:47:34;;;;;;;1.33;0.80;;;24.10;52.00;;;;;;5050922;28;20454;-81
2022/06/10 12:50:02;;;;;;;4.20;1.17;;;24.30;53.40;;;;;;5048239;28;20573;-82
2022/06/10 12:52:46;;;;;;;2.57;1.20;;;24.30;53.60;;;;;;5052549;28;20426;-82
2022/06/10 12:55:24;;;;;;;4.67;0.93;;;24.20;51.70;;;;;;5032775;28;20400;-82
2022/06/10 12:57:50;;;;;;;3.67;1.00;;;;;;;;;;5023457;28;20528;-82
2022/06/10 13:00:19;;;;;;;1.17;0.77;;;24.30;51.70;;;;;;5052344;28;20580;-84
2022/06/10 13:02:56;;;;;;;3.83;1.00;;;24.40;52.10;;;;;;5046888;28;20453;-84
2022/06/10 13:05:46;;;;;;;1.80;0.93;;;24.20;51.90;;;;;;5051446;28;20506;-83
2022/06/10 13:08:34;;;;;;;2.77;1.57;;;24.30;52.30;;;;;;5053145;28;20423;-81
2022/06/10 13:11:02;;;;;;;4.40;1.40;;;24.10;59.70;;;;;;5051003;28;20470;-81
2022/06/10 13:13:28;;;;;;;3.87;0.97;;;;;;;;;;5041661;28;20825;-81
2022/06/10 13:16:16;;;;;;;3.53;1.13;;;24.50;59.40;;;;;;5047505;28;20443;-81
2022/06/10 13:18:53;;;;;;;4.30;1.20;;;24.50;52.80;;;;;;5052286;28;20422;-81
2022/06/10 13:21:28;;;;;;;3.20;1.10;;;24.50;52.80;;;;;;5052122;28;20470;-81
2022/06/10 13:23:59;;;;;;;2.50;1.13;;;24.40;62.30;;;;;;5050707;28;20410;-79
2022/06/10 13:26:27;;;;;;;1.47;0.93;;;24.50;52.80;;;;;;5049281;28;20526;-79
2022/06/10 13:28:53;;;;;;;1.53;0.70;;;;;;;;;;5052381;28;20829;-79
2022/06/10 13:31:24;;;;;;;3.40;1.20;;;25.00;52.80;;;;;;5052033;28;20489;-80
2022/06/10 13:33:59;;;;;;;3.87;1.90;;;24.60;52.50;;;;;;5050183;28;20549;-80
2022/06/10 13:36:27;;;;;;;6.47;1.00;;;24.60;52.70;;;;;;5051421;28;20417;-83
2022/06/10 13:38:56;;;;;;;1.87;1.00;;;24.60;52.70;;;;;;5050063;28;20430;-82
2022/06/10 13:41:48;;;;;;;1.07;1.07;;;24.60;55.00;;;;;;5051484;28;20519;-82
2022/06/10 13:44:28;;;;;;;3.23;1.40;;;24.70;70.50;;;;;;5052104;28;20830;-81
2022/06/10 13:46:54;;;;;;;1.57;1.10;;;24.80;76.70;;;;;;5044056;28;20713;-80
2022/06/10 13:52:35;;;;;;;1.77;1.23;;;24.60;52.90;;;;;;5045743;28;20461;-87
2022/06/10 13:55:20;;;;;;;1.23;0.80;;;24.80;55.20;;;;;;5048558;28;20450;-88
2022/06/10 13:57:54;;;;;;;0.80;0.50;;;24.70;52.70;;;;;;5051382;28;20391;-88